ADDS METAR Data INFO
IDs: Format: Raw Decoded Include TAF

Data at: 0947 UTC 25 Jun 2018

KDBN 250935Z AUTO 00000KT 7SM CLR 23/22 A3008 RMK AO2
KDBN 250915Z AUTO 00000KT 7SM CLR 22/22 A3007 RMK AO2
KDBN 250855Z AUTO 00000KT 10SM CLR 23/22 A3006 RMK AO2
KDBN 250835Z AUTO 00000KT 10SM CLR 23/23 A3006 RMK AO2
KDBN 250815Z AUTO 00000KT 10SM CLR 23/22 A3005 RMK AO2
KDBN 250755Z AUTO 00000KT 10SM CLR 23/22 A3004 RMK AO2
KDBN 250735Z AUTO 00000KT 10SM CLR 23/22 A3004 RMK AO2
KDBN 250715Z AUTO 00000KT 10SM CLR 23/23 A3004 RMK AO2
KDBN 250655Z AUTO 00000KT 10SM CLR 23/23 A3004 RMK AO2
KDBN 250635Z AUTO 00000KT 10SM CLR 24/23 A3005 RMK AO2
KDBN 250615Z AUTO 00000KT 10SM CLR 24/23 A3006 RMK AO2
KDBN 250555Z AUTO 00000KT 10SM SCT055 25/23 A3006 RMK AO2
KDBN 250535Z AUTO 00000KT 10SM SCT055 24/23 A3007 RMK AO2
KDBN 250515Z AUTO 00000KT 10SM CLR 25/23 A3008 RMK AO2
KDBN 250455Z AUTO 00000KT 10SM CLR 24/23 A3008 RMK AO2
KDBN 250435Z AUTO 00000KT 10SM CLR 25/23 A3007 RMK AO2
KDBN 250415Z AUTO 00000KT 10SM CLR 25/23 A3006 RMK AO2
KDBN 250355Z AUTO 00000KT 10SM CLR 25/24 A3006 RMK AO2 LTG DSNT E
KDBN 250335Z AUTO 00000KT 10SM CLR 25/25 A3006 RMK AO2 LTG DSNT NE
KDBN 250315Z AUTO 00000KT 10SM CLR 25/24 A3005 RMK AO2 LTG DSNT NE
KDBN 250255Z AUTO 00000KT 10SM SCT050 26/24 A3006 RMK AO2
KDBN 250235Z AUTO 00000KT 10SM BKN050 26/24 A3006 RMK AO2 LTG DSNT NE
KDBN 250215Z AUTO 00000KT 10SM SCT050 26/25 A3006 RMK AO2 LTG DSNT NE
KDBN 250155Z AUTO 00000KT 10SM SCT055 26/24 A3006 RMK AO2 LTG DSNT N
KDBN 250135Z AUTO 00000KT 10SM CLR 26/24 A3005 RMK AO2 LTG DSNT NE
KDBN 250115Z AUTO 00000KT 10SM CLR 27/25 A3005 RMK AO2 LTG DSNT N
KDBN 250055Z AUTO 00000KT 10SM CLR 28/25 A3004 RMK AO2
KDBN 250035Z AUTO 00000KT 10SM CLR 28/24 A3001 RMK AO2
KDBN 250015Z AUTO 00000KT 10SM CLR 30/22 A3001 RMK AO2 LTG DSNT N
KDBN 242355Z AUTO 00000KT 10SM CLR 31/22 A3001 RMK AO2 LTG DSNT N
KDBN 242335Z AUTO 28004KT 10SM CLR 32/22 A3000 RMK AO2
KDBN 242315Z AUTO 28003KT 10SM CLR 32/22 A3000 RMK AO2
KDBN 242255Z AUTO 26004KT 10SM SCT050 33/22 A3000 RMK AO2
KDBN 242235Z AUTO 25003KT 10SM SCT050 33/22 A2999 RMK AO2
KDBN 242215Z AUTO 23003KT 10SM SCT050 33/22 A2999 RMK AO2
KDBN 242155Z AUTO 00000KT 10SM SCT050 33/22 A2999 RMK AO2
KDBN 242135Z AUTO 22004KT 10SM CLR 33/22 A2999 RMK AO2
KDBN 242115Z AUTO 28004KT 10SM SCT050 SCT060 34/21 A3000 RMK AO2
KDBN 242055Z AUTO 28005KT 10SM SCT050 SCT070 33/22 A3000 RMK AO2
KDBN 242035Z AUTO 29005KT 10SM SCT050 SCT060 34/22 A3001 RMK AO2
KDBN 242015Z AUTO 28006KT 10SM SCT047 SCT060 34/22 A3001 RMK AO2
KDBN 241955Z AUTO 28008KT 10SM BKN044 BKN050 33/23 A3002 RMK AO2
KDBN 241935Z AUTO 25007KT 10SM SCT042 BKN050 32/24 A3002 RMK AO2
KDBN 241915Z AUTO 26004KT 10SM CLR 32/23 A3003 RMK AO2
KDBN 241855Z AUTO 25007KT 10SM SCT036 33/23 A3003 RMK AO2
KDBN 241835Z AUTO 25004KT 10SM SCT036 32/24 A3004 RMK AO2
KDBN 241815Z AUTO 27006KT 10SM SCT034 BKN039 BKN048 32/24 A3005 RMK AO2
KDBN 241755Z AUTO 24005KT 10SM SCT032 BKN037 BKN048 32/24 A3006 RMK AO2
KDBN 241735Z AUTO 25009G14KT 10SM SCT030 SCT038 BKN046 32/25 A3006 RMK AO2
KDBN 241715Z AUTO 24007KT 10SM SCT032 SCT040 31/25 A3006 RMK AO2
KDBN 241655Z AUTO 27007KT 10SM SCT028 BKN040 BKN048 31/24 A3007 RMK AO2
KDBN 241635Z AUTO 23005KT 10SM CLR 31/25 A3006 RMK AO2
KDBN 241615Z AUTO 24007KT 10SM SCT027 SCT039 32/25 A3007 RMK AO2
KDBN 241555Z AUTO 24007KT 10SM SCT025 SCT033 BKN039 31/25 A3007 RMK AO2
KDBN 241535Z AUTO 26004KT 10SM SCT023 BKN033 BKN041 31/25 A3008 RMK AO2
KDBN 241515Z AUTO 28005KT 10SM SCT023 SCT028 31/24 A3007 RMK AO2
KDBN 241455Z AUTO 25004KT 10SM SCT021 30/25 A3007 RMK AO2
KDBN 241435Z AUTO 29006KT 10SM SCT021 30/24 A3006 RMK AO2
KDBN 241415Z AUTO 26005KT 10SM CLR 30/24 A3006 RMK AO2
KDBN 241355Z AUTO 30007KT 10SM CLR 29/23 A3006 RMK AO2
KDBN 241335Z AUTO 27005KT 10SM CLR 28/23 A3006 RMK AO2
KDBN 241315Z AUTO 29007KT 10SM CLR 28/23 A3006 RMK AO2
KDBN 241255Z AUTO 27006KT 10SM CLR 27/23 A3005 RMK AO2
KDBN 241235Z AUTO 27006KT 10SM CLR 26/23 A3005 RMK AO2
KDBN 241215Z AUTO 26004KT 10SM CLR 25/23 A3004 RMK AO2
KDBN 241155Z AUTO 24003KT 10SM CLR 25/22 A3004 RMK AO2
KDBN 241135Z AUTO 26003KT 10SM CLR 24/22 A3004 RMK AO2
KDBN 241115Z AUTO 00000KT 10SM CLR 23/22 A3003 RMK AO2
KDBN 241055Z AUTO 28003KT 10SM CLR 23/22 A3002 RMK AO2
KDBN 241035Z AUTO 00000KT 10SM CLR 22/22 A3002 RMK AO2
KDBN 241015Z AUTO 00000KT 10SM CLR 22/22 A3001 RMK AO2
KDBN 240955Z AUTO 00000KT 10SM CLR 22/22 A3001 RMK AO2
KDBN 240935Z AUTO 00000KT 10SM CLR 22/22 A3001 RMK AO2
KDBN 240915Z AUTO 00000KT 10SM CLR 23/22 A2999 RMK AO2
KDBN 240855Z AUTO 00000KT 10SM CLR 23/22 A3000 RMK AO2
KDBN 240835Z AUTO 25003KT 10SM CLR 23/22 A2999 RMK AO2
KDBN 240815Z AUTO 00000KT 10SM CLR 23/22 A2999 RMK AO2
KDBN 240755Z AUTO 00000KT 7SM CLR 22/22 A2999 RMK AO2
KDBN 240735Z AUTO 00000KT 7SM CLR 22/22 A2999 RMK AO2
KDBN 240715Z AUTO 00000KT 7SM CLR 22/21 A2999 RMK AO2
KDBN 240655Z AUTO 00000KT 10SM CLR 23/22 A2999 RMK AO2
KDBN 240635Z AUTO 00000KT 10SM CLR 23/22 A2999 RMK AO2
KDBN 240615Z AUTO 00000KT 10SM CLR 22/22 A2999 RMK AO2
KDBN 240555Z AUTO 00000KT 10SM CLR 23/22 A2999 RMK AO2
KDBN 240535Z AUTO 00000KT 10SM CLR 23/22 A2998 RMK AO2
KDBN 240515Z AUTO 00000KT 10SM CLR 23/23 A2998 RMK AO2
KDBN 240455Z AUTO 00000KT 10SM CLR 23/23 A2999 RMK AO2
KDBN 240435Z AUTO 00000KT 10SM CLR 23/22 A2999 RMK AO2
KDBN 240415Z AUTO 00000KT 10SM CLR 25/23 A2999 RMK AO2
KDBN 240355Z AUTO 00000KT 10SM CLR 24/23 A2999 RMK AO2
KDBN 240335Z AUTO 00000KT 10SM CLR 24/23 A2999 RMK AO2
KDBN 240315Z AUTO 00000KT 10SM CLR 25/23 A2999 RMK AO2
KDBN 240255Z AUTO 00000KT 10SM CLR 25/23 A2998 RMK AO2
KDBN 240235Z AUTO 18003KT 10SM CLR 25/23 A2997 RMK AO2
KDBN 240215Z AUTO 18003KT 10SM CLR 25/23 A2997 RMK AO2
KDBN 240155Z AUTO 20003KT 10SM CLR 25/23 A2997 RMK AO2
KDBN 240135Z AUTO 00000KT 10SM CLR 25/23 A2996 RMK AO2
KDBN 240115Z AUTO 00000KT 10SM CLR 27/23 A2996 RMK AO2
KDBN 240055Z AUTO 00000KT 10SM CLR 27/22 A2996 RMK AO2
KDBN 240035Z AUTO 17004KT 10SM CLR 28/24 A2996 RMK AO2
KDBN 240015Z AUTO 00000KT 10SM CLR 29/24 A2996 RMK AO2
KDBN 232355Z AUTO 00000KT 10SM CLR 31/22 A2996 RMK AO2
KDBN 232335Z AUTO 00000KT 10SM CLR 31/23 A2995 RMK AO2
KDBN 232315Z AUTO 33003KT 10SM CLR 31/23 A2995 RMK AO2
KDBN 232255Z AUTO 02003KT 10SM CLR 31/23 A2995 RMK AO2
KDBN 232235Z AUTO 34004KT 10SM CLR 32/23 A2995 RMK AO2
KDBN 232215Z AUTO 03004KT 10SM CLR 32/23 A2995 RMK AO2
KDBN 232155Z AUTO 02003KT 10SM SCT049 SCT060 32/23 A2995 RMK AO2 LTG DSNT NE